Time;durP1;ratioP1;P1;durP2;ratioP2;P2;SDS_P1;SDS_P2;PMS_P1;PMS_P2;Temp;Humidity;BMP_temperature;BMP_pressure;BME280_temperature;BME280_humidity;BME280_pressure;Samples;Min_cycle;Max_cycle;Signal;HPM_P1;HPM_P2
2022/03/14 00:01:11;;;;;;;3.70;2.57;;;10.50;99.90;;;;;;5074931;28;20206;-55
2022/03/14 00:03:47;;;;;;;3.17;2.50;;;10.50;99.90;;;;;;5074825;28;20292;-59
2022/03/14 00:06:15;;;;;;;4.60;2.50;;;10.60;99.90;;;;;;5075245;28;20313;-59
2022/03/14 00:08:44;;;;;;;3.73;2.80;;;10.60;99.90;;;;;;5075864;28;20230;-59
2022/03/14 00:11:14;;;;;;;3.67;2.63;;;10.60;99.90;;;;;;5075528;28;20263;-59
2022/03/14 00:13:40;;;;;;;5.00;2.93;;;10.70;99.90;;;;;;5075502;28;20232;-59
2022/03/14 00:16:08;;;;;;;3.53;2.60;;;10.60;99.90;;;;;;5075947;28;20566;-60
2022/03/14 00:18:36;;;;;;;4.47;2.77;;;10.70;99.90;;;;;;5075935;28;20733;-61
2022/03/14 00:21:05;;;;;;;3.90;3.33;;;10.70;99.90;;;;;;5076536;28;20296;-61
2022/03/14 00:23:31;;;;;;;3.33;2.43;;;10.60;99.90;;;;;;5074605;28;20248;-60
2022/03/14 00:25:58;;;;;;;4.63;2.60;;;10.60;99.90;;;;;;5074359;28;20562;-59
2022/03/14 00:28:25;;;;;;;5.67;3.00;;;10.60;99.90;;;;;;5074510;28;20222;-61
2022/03/14 00:30:51;;;;;;;3.80;2.60;;;10.60;99.90;;;;;;5074298;28;20206;-60
2022/03/14 00:33:18;;;;;;;3.93;3.23;;;10.60;99.90;;;;;;5074532;28;20231;-59
2022/03/14 00:35:46;;;;;;;3.67;2.67;;;10.50;99.90;;;;;;5074287;28;20212;-59
2022/03/14 00:38:14;;;;;;;3.87;2.93;;;10.40;99.90;;;;;;5074280;28;20229;-60
2022/03/14 00:40:41;;;;;;;5.80;3.43;;;10.40;99.90;;;;;;5074325;28;20214;-59
2022/03/14 00:43:08;;;;;;;4.27;2.80;;;10.30;99.90;;;;;;5074341;28;20207;-58
2022/03/14 00:45:34;;;;;;;4.73;2.93;;;10.30;99.90;;;;;;5074330;28;20207;-60
2022/03/14 00:48:01;;;;;;;3.70;2.90;;;10.30;99.90;;;;;;5074106;28;20707;-61
2022/03/14 00:50:28;;;;;;;4.03;2.73;;;10.20;99.90;;;;;;5074279;28;20274;-61
2022/03/14 00:52:56;;;;;;;4.10;3.37;;;10.30;99.90;;;;;;5074465;28;20680;-59
2022/03/14 00:55:22;;;;;;;3.73;3.07;;;10.20;99.90;;;;;;5074547;28;20221;-60
2022/03/14 00:57:49;;;;;;;5.13;3.47;;;10.20;99.90;;;;;;5074227;28;20206;-61
2022/03/14 01:00:16;;;;;;;4.57;2.80;;;10.20;99.90;;;;;;5074294;28;20262;-58
2022/03/14 01:02:42;;;;;;;5.17;2.93;;;10.20;99.90;;;;;;5073851;28;20207;-57
2022/03/14 01:05:09;;;;;;;3.87;3.33;;;10.10;99.90;;;;;;5073946;28;20288;-58
2022/03/14 01:07:36;;;;;;;4.23;3.07;;;10.00;99.90;;;;;;5073539;28;20221;-60
2022/03/14 01:10:05;;;;;;;4.03;3.17;;;10.10;99.90;;;;;;5073591;28;20242;-60
2022/03/14 01:12:32;;;;;;;4.97;3.20;;;10.10;99.90;;;;;;5073612;28;20275;-60
2022/03/14 01:14:59;;;;;;;5.30;3.30;;;10.00;99.90;;;;;;5073586;28;20319;-57
2022/03/14 01:17:25;;;;;;;4.83;3.43;;;10.00;99.90;;;;;;5073533;28;20219;-58
2022/03/14 01:19:52;;;;;;;5.77;3.27;;;10.00;99.90;;;;;;5073520;28;20267;-59
2022/03/14 01:22:19;;;;;;;4.47;3.20;;;10.00;99.90;;;;;;5073635;28;20242;-59
2022/03/14 01:24:45;;;;;;;3.70;3.20;;;10.10;99.90;;;;;;5073586;28;20234;-60
2022/03/14 01:27:13;;;;;;;4.83;3.33;;;10.20;99.90;;;;;;5072900;28;20255;-60
2022/03/14 01:29:40;;;;;;;7.30;3.63;;;10.20;99.90;;;;;;5073556;28;20279;-58
2022/03/14 01:32:10;;;;;;;4.53;3.47;;;10.20;99.90;;;;;;5073311;28;20383;-57
2022/03/14 01:34:37;;;;;;;4.93;3.37;;;10.30;99.90;;;;;;5073397;28;20233;-59
2022/03/14 01:37:04;;;;;;;4.33;3.47;;;10.20;99.90;;;;;;5072819;28;20208;-56
2022/03/14 01:39:31;;;;;;;5.33;3.40;;;10.20;99.90;;;;;;5073116;28;20206;-61
2022/03/14 01:41:58;;;;;;;4.93;3.70;;;10.10;1.00;;;;;;5073099;28;20267;-59
2022/03/14 01:44:27;;;;;;;5.10;3.33;;;10.00;1.00;;;;;;5073181;28;20240;-60
2022/03/14 01:46:54;;;;;;;5.70;4.30;;;10.00;1.00;;;;;;5072915;28;20209;-55
2022/03/14 01:49:22;;;;;;;4.03;3.50;;;9.90;1.00;;;;;;5072776;28;20229;-56
2022/03/14 01:51:52;;;;;;;6.00;4.13;;;9.80;1.00;;;;;;5073018;28;20240;-59
2022/03/14 01:54:19;;;;;;;5.03;3.60;;;9.80;1.00;;;;;;5072736;28;20260;-57
2022/03/14 01:56:46;;;;;;;4.30;3.87;;;9.90;1.00;;;;;;5072680;28;20205;-58
2022/03/14 01:59:14;;;;;;;5.40;3.97;;;9.90;1.00;;;;;;5072822;28;20197;-59
2022/03/14 02:01:42;;;;;;;6.70;4.13;;;9.80;1.00;;;;;;5072734;28;20204;-59
2022/03/14 02:04:09;;;;;;;5.07;3.67;;;9.70;1.00;;;;;;5072431;28;20315;-58
2022/03/14 02:06:36;;;;;;;6.53;4.50;;;9.70;58.30;;;;;;5072182;28;20204;-59
2022/03/14 02:09:02;;;;;;;6.03;4.57;;;9.60;99.90;;;;;;5072737;28;20263;-57
2022/03/14 02:11:29;;;;;;;6.30;4.37;;;9.60;99.90;;;;;;5072496;28;20266;-58
2022/03/14 02:13:56;;;;;;;6.07;4.47;;;9.60;1.00;;;;;;5072535;28;20233;-58
2022/03/14 02:16:22;;;;;;;6.50;4.97;;;9.60;95.10;;;;;;5072098;28;20262;-57
2022/03/14 02:18:50;;;;;;;5.90;4.30;;;9.50;99.90;;;;;;5072463;28;20262;-58
2022/03/14 02:21:18;;;;;;;7.80;5.07;;;9.50;1.00;;;;;;5072052;28;20201;-59
2022/03/14 02:23:45;;;;;;;7.10;4.20;;;9.50;1.00;;;;;;5072468;28;20278;-58
2022/03/14 02:26:11;;;;;;;6.93;4.70;;;9.40;1.00;;;;;;5072053;28;20611;-59
2022/03/14 02:28:38;;;;;;;6.37;4.57;;;9.50;9.60;;;;;;5071995;28;20748;-57
2022/03/14 02:31:05;;;;;;;5.70;4.40;;;9.40;99.90;;;;;;5072331;28;20570;-58
2022/03/14 02:33:32;;;;;;;8.17;5.00;;;9.50;99.90;;;;;;5071806;28;20711;-59
2022/03/14 02:35:59;;;;;;;5.50;4.23;;;9.50;99.90;;;;;;5071769;28;20255;-58
2022/03/14 02:38:27;;;;;;;7.43;4.40;;;9.60;1.00;;;;;;5071790;28;20671;-58
2022/03/14 02:40:53;;;;;;;7.20;5.03;;;9.50;42.70;;;;;;5072166;28;20201;-60
2022/03/14 02:43:24;;;;;;;7.33;5.07;;;9.50;99.90;;;;;;5071920;28;20221;-59
2022/03/14 02:45:52;;;;;;;6.77;5.07;;;9.40;99.90;;;;;;5072141;28;20232;-59
2022/03/14 02:48:19;;;;;;;8.60;5.50;;;9.40;99.90;;;;;;5071632;28;20257;-60
2022/03/14 02:50:48;;;;;;;10.27;5.40;;;9.30;1.00;;;;;;5072018;28;20239;-59
2022/03/14 02:53:16;;;;;;;8.20;5.60;;;9.20;1.00;;;;;;5072025;28;20619;-59
2022/03/14 02:55:44;;;;;;;6.13;5.37;;;9.10;1.00;;;;;;5071735;28;20254;-59
2022/03/14 02:58:11;;;;;;;10.10;5.43;;;9.00;1.00;;;;;;5071582;28;20204;-59
2022/03/14 03:00:37;;;;;;;7.83;5.73;;;9.00;1.00;;;;;;5071673;28;20694;-60
2022/03/14 03:03:05;;;;;;;8.63;6.10;;;9.00;99.40;;;;;;5071916;28;20208;-59
2022/03/14 03:05:34;;;;;;;6.87;5.37;;;8.90;99.90;;;;;;5071903;28;20208;-60
2022/03/14 03:08:01;;;;;;;8.00;5.87;;;8.80;99.90;;;;;;5071438;28;20217;-58
2022/03/14 03:10:28;;;;;;;7.27;5.20;;;8.80;1.00;;;;;;5071843;28;20293;-58
2022/03/14 03:12:56;;;;;;;8.63;6.03;;;8.80;1.00;;;;;;5071468;28;20205;-59
2022/03/14 03:15:24;;;;;;;9.37;7.13;;;8.80;1.00;;;;;;5071322;28;20572;-59
2022/03/14 03:17:51;;;;;;;8.47;5.70;;;8.70;1.00;;;;;;5071485;28;20209;-61
2022/03/14 03:20:18;;;;;;;8.30;5.90;;;8.80;1.00;;;;;;5071849;28;20201;-58
2022/03/14 03:22:45;;;;;;;9.40;6.20;;;8.70;1.00;;;;;;5071760;28;20238;-57
2022/03/14 03:25:12;;;;;;;8.27;5.40;;;8.70;27.60;;;;;;5073271;28;20282;-58
2022/03/14 03:27:39;;;;;;;8.10;5.53;;;8.70;57.40;;;;;;5071722;28;20209;-59
2022/03/14 03:30:08;;;;;;;7.70;5.97;;;8.70;72.50;;;;;;5071952;28;20281;-59
2022/03/14 03:32:35;;;;;;;9.23;6.10;;;8.60;87.90;;;;;;5072060;28;20268;-59
2022/03/14 03:35:01;;;;;;;8.17;6.00;;;8.50;99.90;;;;;;5073150;28;20288;-59
2022/03/14 03:37:28;;;;;;;7.93;5.87;;;8.50;99.90;;;;;;5072323;28;20205;-58
2022/03/14 03:39:55;;;;;;;8.50;6.70;;;8.50;99.90;;;;;;5071766;28;20565;-59
2022/03/14 03:42:22;;;;;;;9.23;6.27;;;8.40;99.90;;;;;;5072129;28;20293;-58
2022/03/14 03:44:48;;;;;;;7.83;5.83;;;8.40;99.90;;;;;;5071633;28;20889;-57
2022/03/14 03:47:16;;;;;;;9.83;5.70;;;8.40;99.90;;;;;;5071154;28;20209;-58
2022/03/14 03:49:43;;;;;;;8.40;5.73;;;8.40;99.90;;;;;;5071239;28;20277;-58
2022/03/14 03:52:10;;;;;;;9.27;6.33;;;8.40;99.90;;;;;;5071246;28;20555;-57
2022/03/14 03:54:36;;;;;;;7.53;5.63;;;8.30;99.90;;;;;;5071378;28;20323;-58
2022/03/14 03:57:03;;;;;;;9.03;5.77;;;8.30;99.90;;;;;;5070599;28;20224;-59
2022/03/14 03:59:30;;;;;;;8.53;6.27;;;8.30;99.90;;;;;;5071237;28;20209;-59
2022/03/14 04:01:57;;;;;;;8.67;6.30;;;8.30;99.90;;;;;;5071010;28;20205;-58
2022/03/14 04:04:25;;;;;;;8.10;5.83;;;8.30;99.90;;;;;;5071255;28;20319;-58
2022/03/14 04:06:54;;;;;;;8.37;6.17;;;8.30;99.90;;;;;;5070940;28;20268;-58
2022/03/14 04:09:21;;;;;;;9.07;6.07;;;8.30;99.90;;;;;;5071011;28;20238;-58
2022/03/14 04:11:47;;;;;;;8.20;5.53;;;8.30;99.90;;;;;;5070856;28;20207;-57
2022/03/14 04:14:15;;;;;;;8.47;5.90;;;8.30;99.90;;;;;;5071107;28;20228;-58
2022/03/14 04:16:42;;;;;;;7.80;5.60;;;8.30;99.90;;;;;;5070943;28;20215;-58
2022/03/14 04:19:09;;;;;;;7.97;5.37;;;8.20;99.90;;;;;;5071044;28;20247;-59
2022/03/14 04:21:37;;;;;;;9.23;5.17;;;8.30;99.90;;;;;;5071177;28;20226;-59
2022/03/14 04:24:06;;;;;;;8.93;5.40;;;8.30;99.90;;;;;;5070791;28;20254;-60
2022/03/14 04:26:33;;;;;;;8.27;5.47;;;8.30;99.90;;;;;;5072657;28;20215;-59
2022/03/14 04:29:00;;;;;;;7.90;5.53;;;8.30;99.90;;;;;;5074677;28;20231;-59
2022/03/14 04:31:27;;;;;;;7.73;5.57;;;8.30;99.90;;;;;;5074405;28;20612;-59
2022/03/14 04:33:54;;;;;;;8.00;5.70;;;8.30;99.90;;;;;;5074352;28;20224;-58
2022/03/14 04:36:21;;;;;;;8.60;5.70;;;8.20;99.90;;;;;;5074092;28;20315;-58
2022/03/14 04:38:49;;;;;;;11.33;6.23;;;8.20;99.90;;;;;;5073984;28;20215;-59
2022/03/14 04:41:16;;;;;;;9.20;5.27;;;8.20;99.90;;;;;;5074284;28;20265;-59
2022/03/14 04:43:42;;;;;;;6.77;5.37;;;8.20;99.90;;;;;;5074322;28;20223;-59
2022/03/14 04:46:09;;;;;;;9.00;5.70;;;8.20;99.90;;;;;;5074223;28;20215;-58
2022/03/14 04:48:36;;;;;;;8.40;5.43;;;8.20;99.90;;;;;;5073928;28;20238;-58
2022/03/14 04:51:03;;;;;;;7.47;5.23;;;8.20;99.90;;;;;;5074218;28;20207;-58
2022/03/14 04:53:29;;;;;;;7.60;5.33;;;8.20;99.90;;;;;;5074425;28;20540;-58
2022/03/14 04:55:57;;;;;;;8.77;5.90;;;8.30;99.90;;;;;;5073995;28;20679;-57
2022/03/14 04:58:24;;;;;;;6.77;5.10;;;8.20;99.90;;;;;;5074018;28;20209;-58
2022/03/14 05:00:50;;;;;;;8.23;4.87;;;8.20;99.90;;;;;;5074235;28;20200;-56
2022/03/14 05:03:17;;;;;;;6.53;4.87;;;8.20;99.90;;;;;;5073675;28;20201;-56
2022/03/14 05:05:44;;;;;;;7.10;4.13;;;8.10;99.90;;;;;;5073802;28;20215;-59
2022/03/14 05:08:10;;;;;;;7.83;4.83;;;8.10;99.90;;;;;;5073610;28;20254;-59
2022/03/14 05:10:37;;;;;;;5.03;4.03;;;8.00;99.90;;;;;;5073787;28;20274;-58
2022/03/14 05:13:05;;;;;;;7.17;4.57;;;8.00;99.90;;;;;;5073818;28;20670;-58
2022/03/14 05:15:33;;;;;;;8.13;4.47;;;8.00;99.90;;;;;;5073638;28;20242;-58
2022/03/14 05:18:01;;;;;;;6.40;4.63;;;8.00;99.90;;;;;;5073332;28;20212;-55
2022/03/14 05:20:27;;;;;;;7.27;4.83;;;8.00;99.90;;;;;;5073244;28;20208;-58
2022/03/14 05:22:54;;;;;;;8.20;5.13;;;8.00;99.90;;;;;;5073827;28;20211;-56
2022/03/14 05:25:22;;;;;;;6.53;5.03;;;8.00;99.90;;;;;;5073596;28;20281;-58
2022/03/14 05:27:50;;;;;;;8.03;5.40;;;8.00;99.90;;;;;;5073105;28;20281;-54
2022/03/14 05:30:18;;;;;;;8.73;5.60;;;8.00;99.90;;;;;;5073421;28;20232;-57
2022/03/14 05:32:45;;;;;;;7.47;5.87;;;8.00;99.90;;;;;;5073156;28;20208;-56
2022/03/14 05:35:15;;;;;;;7.73;5.77;;;8.00;99.90;;;;;;5073152;28;20227;-58
2022/03/14 05:37:42;;;;;;;9.07;6.37;;;7.90;99.90;;;;;;5072498;28;20211;-59
2022/03/14 05:40:10;;;;;;;9.40;6.40;;;7.90;99.90;;;;;;5073291;28;20208;-58
2022/03/14 05:42:37;;;;;;;10.27;7.13;;;7.90;99.90;;;;;;5072051;28;20318;-62
2022/03/14 05:45:05;;;;;;;9.70;7.13;;;7.90;99.90;;;;;;5072029;28;20227;-58
2022/03/14 05:47:33;;;;;;;11.87;8.10;;;7.90;99.90;;;;;;5072208;28;20211;-59
2022/03/14 05:49:59;;;;;;;10.83;7.90;;;7.90;99.90;;;;;;5072716;28;20609;-58
2022/03/14 05:52:26;;;;;;;12.00;8.53;;;7.90;99.90;;;;;;5073008;28;20209;-58
2022/03/14 05:54:52;;;;;;;11.40;8.53;;;7.90;99.90;;;;;;5072365;28;20778;-58
2022/03/14 05:57:19;;;;;;;12.00;8.50;;;7.90;99.90;;;;;;5072618;28;20245;-58
2022/03/14 05:59:46;;;;;;;12.93;9.07;;;8.00;99.90;;;;;;5072753;28;20204;-58
2022/03/14 06:02:12;;;;;;;13.70;9.50;;;7.90;99.90;;;;;;5072384;28;20620;-58
2022/03/14 06:04:41;;;;;;;13.90;9.33;;;8.00;99.90;;;;;;5072781;28;20231;-58
2022/03/14 06:07:07;;;;;;;11.77;9.23;;;8.00;99.90;;;;;;5072094;28;20261;-58
2022/03/14 06:09:34;;;;;;;11.47;8.60;;;8.00;99.90;;;;;;5072556;28;20282;-58
2022/03/14 06:12:01;;;;;;;13.20;9.17;;;8.00;99.90;;;;;;5072240;28;20585;-59
2022/03/14 06:14:28;;;;;;;13.93;10.03;;;8.00;99.90;;;;;;5072393;28;20227;-58
2022/03/14 06:16:54;;;;;;;14.17;9.30;;;8.00;99.90;;;;;;5072001;28;20217;-59
2022/03/14 06:19:21;;;;;;;16.07;9.57;;;8.00;99.90;;;;;;5072047;28;20204;-59
2022/03/14 06:21:50;;;;;;;13.27;9.10;;;8.00;99.90;;;;;;5072520;28;20565;-58
2022/03/14 06:24:17;;;;;;;14.60;8.90;;;7.90;99.90;;;;;;5071948;28;20381;-58
2022/03/14 06:26:44;;;;;;;13.47;8.97;;;7.90;99.90;;;;;;5066483;28;20211;-63
2022/03/14 06:29:11;;;;;;;12.40;9.13;;;8.00;99.90;;;;;;5067621;28;20203;-60
2022/03/14 06:31:37;;;;;;;12.73;8.87;;;7.90;99.90;;;;;;5071926;28;20294;-61
2022/03/14 06:34:04;;;;;;;13.27;8.87;;;7.90;99.90;;;;;;5071755;28;20227;-61
2022/03/14 06:36:31;;;;;;;12.03;8.40;;;7.90;99.90;;;;;;5071047;28;20269;-62
2022/03/14 06:38:59;;;;;;;11.30;8.40;;;8.00;99.90;;;;;;5071345;28;20234;-62
2022/03/14 06:41:27;;;;;;;13.13;9.33;;;8.00;99.90;;;;;;5071674;28;20212;-61
2022/03/14 06:43:56;;;;;;;16.92;12.73;;;8.00;99.90;;;;;;5070176;28;20447;-63
2022/03/14 06:46:23;;;;;;;19.53;11.70;;;8.10;99.90;;;;;;5071202;28;20740;-62
2022/03/14 06:48:50;;;;;;;14.50;10.03;;;8.00;99.90;;;;;;5070543;28;20303;-64
2022/03/14 06:51:17;;;;;;;16.83;10.60;;;8.00;99.90;;;;;;5072730;28;20224;-61
2022/03/14 06:53:43;;;;;;;13.53;9.97;;;8.00;99.90;;;;;;5073155;28;20725;-62
2022/03/14 06:56:13;;;;;;;13.30;9.60;;;8.10;99.90;;;;;;5071676;28;20763;-61
2022/03/14 06:58:39;;;;;;;14.47;10.23;;;8.10;99.90;;;;;;5071187;28;20848;-63
2022/03/14 07:01:06;;;;;;;15.03;9.93;;;8.10;99.90;;;;;;5072649;28;20204;-62
2022/03/14 07:03:32;;;;;;;13.37;9.00;;;8.10;99.90;;;;;;5072339;28;20228;-62
2022/03/14 07:05:59;;;;;;;12.07;9.23;;;8.10;99.90;;;;;;5071743;28;20690;-62
2022/03/14 07:08:26;;;;;;;13.43;9.17;;;8.10;99.90;;;;;;5071972;28;20201;-59
2022/03/14 07:10:54;;;;;;;14.10;8.70;;;8.10;99.90;;;;;;5070631;28;20225;-61
2022/03/14 07:13:22;;;;;;;10.30;7.03;;;8.10;99.90;;;;;;5071594;28;20630;-62
2022/03/14 07:15:48;;;;;;;10.90;7.90;;;8.00;99.90;;;;;;5071264;28;20207;-63
2022/03/14 07:18:15;;;;;;;12.13;8.00;;;8.00;99.90;;;;;;5070549;28;20711;-60
2022/03/14 07:20:42;;;;;;;12.33;8.57;;;8.00;99.90;;;;;;5071513;28;20207;-63
2022/03/14 07:23:09;;;;;;;10.30;7.70;;;8.00;99.90;;;;;;5070668;28;20369;-62
2022/03/14 07:25:38;;;;;;;12.30;8.30;;;8.00;99.90;;;;;;5070987;28;20205;-62
2022/03/14 07:28:07;;;;;;;11.57;8.33;;;8.00;99.90;;;;;;5070016;28;20295;-61
2022/03/14 07:30:35;;;;;;;10.57;7.83;;;8.00;99.90;;;;;;5071081;28;20274;-61
2022/03/14 07:33:02;;;;;;;10.87;7.87;;;8.00;99.90;;;;;;5071213;28;20223;-62
2022/03/14 07:35:30;;;;;;;10.67;8.37;;;8.00;99.90;;;;;;5070945;28;20607;-63
2022/03/14 07:37:56;;;;;;;11.63;7.70;;;8.10;99.90;;;;;;5070340;28;20220;-61
2022/03/14 07:40:23;;;;;;;10.67;7.23;;;8.10;99.90;;;;;;5070935;28;20209;-62
2022/03/14 07:42:52;;;;;;;9.53;6.93;;;8.10;99.90;;;;;;5071183;28;20216;-61
2022/03/14 07:45:21;;;;;;;9.70;6.70;;;8.20;99.90;;;;;;5070538;28;20228;-61
2022/03/14 07:47:50;;;;;;;14.57;6.87;;;8.20;99.90;;;;;;5070241;28;20682;-62
2022/03/14 07:50:18;;;;;;;8.00;6.80;;;8.20;99.90;;;;;;5070732;28;20229;-63
2022/03/14 07:52:46;;;;;;;10.80;6.40;;;8.20;99.90;;;;;;5070349;28;20223;-61
2022/03/14 07:55:13;;;;;;;7.70;5.57;;;8.30;99.90;;;;;;5070785;28;20285;-62
2022/03/14 07:57:41;;;;;;;8.07;6.03;;;8.30;99.90;;;;;;5070002;28;20220;-61
2022/03/14 08:00:11;;;;;;;9.67;6.03;;;8.30;99.90;;;;;;5072243;28;20201;-62
2022/03/14 08:02:38;;;;;;;9.37;5.87;;;8.40;99.90;;;;;;5074442;28;20227;-61
2022/03/14 08:05:08;;;;;;;9.60;5.37;;;8.40;99.90;;;;;;5074855;28;20231;-62
2022/03/14 08:07:34;;;;;;;7.87;5.47;;;8.40;99.90;;;;;;5074271;28;20232;-62
2022/03/14 08:10:02;;;;;;;11.23;6.53;;;8.40;99.90;;;;;;5074031;28;20316;-64
2022/03/14 08:12:28;;;;;;;9.00;5.47;;;8.40;99.90;;;;;;5074517;28;20312;-62
2022/03/14 08:14:55;;;;;;;8.07;6.03;;;8.40;99.90;;;;;;5074055;28;20229;-63
2022/03/14 08:17:22;;;;;;;9.87;5.30;;;8.50;99.90;;;;;;5074004;28;20205;-62
2022/03/14 08:19:48;;;;;;;8.67;6.03;;;8.40;99.90;;;;;;5074034;28;20216;-62
2022/03/14 08:22:16;;;;;;;6.10;4.93;;;8.50;99.90;;;;;;5074170;28;20590;-62
2022/03/14 08:24:43;;;;;;;9.43;5.83;;;8.50;99.90;;;;;;5074317;28;20272;-62
2022/03/14 08:27:10;;;;;;;10.77;6.40;;;8.60;99.90;;;;;;5073322;28;20216;-61
2022/03/14 08:29:37;;;;;;;9.93;5.83;;;8.50;99.90;;;;;;5074287;28;20256;-62
2022/03/14 08:32:04;;;;;;;7.83;5.80;;;8.60;99.90;;;;;;5073351;28;20215;-60
2022/03/14 08:34:31;;;;;;;8.77;5.30;;;8.60;99.90;;;;;;5074020;28;20282;-62
2022/03/14 08:36:57;;;;;;;8.67;6.43;;;8.60;99.90;;;;;;5073672;28;20201;-61
2022/03/14 08:39:26;;;;;;;8.70;5.27;;;8.70;99.90;;;;;;5074333;28;20208;-60
2022/03/14 08:41:53;;;;;;;11.83;6.73;;;8.70;99.90;;;;;;5074508;28;20217;-61
2022/03/14 08:44:19;;;;;;;9.43;5.70;;;8.80;99.90;;;;;;5073206;28;20294;-63
2022/03/14 08:46:46;;;;;;;7.60;5.33;;;8.80;99.90;;;;;;5073139;28;20584;-62
2022/03/14 08:49:13;;;;;;;;;;;8.90;99.90;;;;;;5073382;28;20064;-61
2022/03/14 08:51:40;;;;;;;;;;;8.90;99.90;;;;;;5074430;28;19927;-56
2022/03/14 08:54:06;;;;;;;;;;;9.00;99.90;;;;;;5073976;28;19920;-63
2022/03/14 08:56:35;;;;;;;9.33;4.70;;;9.10;99.90;;;;;;5073079;28;20073;-57
2022/03/14 08:59:01;;;;;;;9.30;5.53;;;9.20;99.90;;;;;;5073333;28;20212;-64
2022/03/14 09:01:28;;;;;;;;;;;9.20;99.90;;;;;;5073867;28;20048;-64
2022/03/14 09:03:55;;;;;;;8.13;5.10;;;9.30;99.90;;;;;;5073531;28;20314;-62
2022/03/14 09:06:21;;;;;;;9.13;5.70;;;9.30;99.90;;;;;;5072898;28;20209;-63
2022/03/14 09:08:48;;;;;;;;;;;9.30;99.90;;;;;;5073613;28;20050;-65
2022/03/14 09:11:15;;;;;;;;;;;9.40;99.90;;;;;;5072891;28;20512;-63
2022/03/14 09:13:43;;;;;;;11.07;5.23;;;9.50;99.90;;;;;;5072677;28;20027;-64
2022/03/14 09:16:09;;;;;;;10.13;5.10;;;9.50;99.90;;;;;;5072930;28;20263;-62
2022/03/14 09:18:36;;;;;;;9.33;5.17;;;9.50;99.90;;;;;;5072630;28;20213;-63
2022/03/14 09:21:03;;;;;;;11.47;5.70;;;9.50;99.90;;;;;;5073239;28;20309;-63
2022/03/14 09:23:30;;;;;;;8.13;5.13;;;9.40;99.90;;;;;;5073216;28;20229;-60
2022/03/14 09:25:57;;;;;;;8.27;5.00;;;9.50;99.90;;;;;;5072628;28;20208;-59
2022/03/14 09:28:25;;;;;;;6.90;4.90;;;9.40;99.90;;;;;;5072434;28;20212;-62
2022/03/14 09:30:53;;;;;;;12.27;5.70;;;9.30;99.90;;;;;;5072504;28;20229;-63
2022/03/14 09:33:21;;;;;;;9.47;5.30;;;9.30;99.90;;;;;;5072994;28;20231;-61
2022/03/14 09:35:48;;;;;;;9.03;5.37;;;9.30;99.90;;;;;;5072527;28;20232;-63
2022/03/14 09:38:16;;;;;;;9.50;5.03;;;9.40;99.90;;;;;;5071689;28;20212;-65
2022/03/14 09:40:45;;;;;;;9.53;5.67;;;9.50;99.90;;;;;;5072382;28;20299;-64
2022/03/14 09:43:13;;;;;;;11.03;5.23;;;9.60;99.90;;;;;;5072378;28;20252;-63
2022/03/14 09:45:40;;;;;;;9.90;5.47;;;9.60;99.90;;;;;;5072754;28;20644;-63
2022/03/14 09:48:11;;;;;;;9.27;5.70;;;9.70;97.70;;;;;;5071537;28;20258;-62
2022/03/14 09:50:39;;;;;;;8.53;5.57;;;9.70;99.90;;;;;;5072407;28;20231;-64
2022/03/14 09:53:08;;;;;;;7.80;5.17;;;9.90;99.90;;;;;;5072459;28;20205;-63
2022/03/14 09:55:38;;;;;;;10.97;5.13;;;9.90;99.90;;;;;;5072173;28;20205;-62
2022/03/14 09:58:07;;;;;;;9.97;5.27;;;9.80;94.70;;;;;;5072155;28;20250;-61
2022/03/14 10:00:34;;;;;;;9.60;4.43;;;9.70;95.20;;;;;;5071990;28;20250;-61
2022/03/14 10:03:02;;;;;;;8.20;5.37;;;9.60;87.60;;;;;;5072431;28;20208;-62
2022/03/14 10:05:30;;;;;;;7.77;5.00;;;9.70;93.50;;;;;;5071806;28;20588;-60
2022/03/14 10:07:57;;;;;;;14.03;6.00;;;9.80;98.20;;;;;;5071366;28;20277;-62
2022/03/14 10:10:24;;;;;;;;;;;9.90;92.20;;;;;;5072079;28;20056;-63
2022/03/14 10:12:53;;;;;;;;;;;10.10;73.90;;;;;;5072407;28;20382;-63
2022/03/14 10:15:21;;;;;;;;;;;10.10;63.60;;;;;;5072546;28;19947;-62
2022/03/14 10:17:47;;;;;;;;;;;10.20;64.20;;;;;;5071505;28;19973;-64
2022/03/14 10:20:16;;;;;;;;;;;10.30;56.60;;;;;;5072048;28;19920;-64
2022/03/14 10:22:44;;;;;;;;;;;10.30;45.40;;;;;;5071885;28;20585;-63
2022/03/14 10:25:13;;;;;;;;;;;10.20;30.80;;;;;;5072148;28;20386;-63
2022/03/14 10:27:40;;;;;;;;;;;10.00;40.80;;;;;;5072517;28;19921;-62
2022/03/14 10:30:08;;;;;;;;;;;10.00;21.40;;;;;;5072008;28;19920;-62
2022/03/14 10:32:36;;;;;;;;;;;10.20;56.80;;;;;;5072069;28;19920;-63
2022/03/14 10:35:05;;;;;;;14.03;6.00;;;10.20;58.00;;;;;;5071711;28;20237;-64
2022/03/14 10:37:33;;;;;;;8.95;5.53;;;10.10;33.80;;;;;;5069983;28;20924;-62
2022/03/14 10:40:02;;;;;;;;;;;10.00;56.00;;;;;;5071958;28;20040;-62
2022/03/14 10:42:29;;;;;;;;;;;10.00;51.70;;;;;;5072118;28;20309;-62
2022/03/14 10:44:56;;;;;;;;;;;10.00;51.60;;;;;;5071861;28;19920;-63
2022/03/14 10:47:25;;;;;;;;;;;9.90;56.00;;;;;;5070999;28;20451;-60
2022/03/14 10:49:51;;;;;;;;;;;9.90;41.80;;;;;;5071713;28;19931;-62
2022/03/14 10:52:20;;;;;;;;;;;9.90;51.10;;;;;;5071493;28;19921;-61
2022/03/14 10:54:47;;;;;;;;;;;10.10;53.70;;;;;;5071739;28;19920;-62
2022/03/14 10:57:17;;;;;;;;;;;10.20;34.20;;;;;;5071103;28;19920;-63
2022/03/14 10:59:45;;;;;;;;;;;10.20;42.20;;;;;;5071802;28;19964;-60
2022/03/14 11:02:12;;;;;;;;;;;10.40;52.80;;;;;;5071120;28;19927;-63
2022/03/14 11:04:43;;;;;;;;;;;10.50;20.10;;;;;;5071749;28;19920;-62
2022/03/14 11:07:10;;;;;;;;;;;10.60;1.00;;;;;;5071272;28;19920;-64
2022/03/14 11:09:37;;;;;;;;;;;10.60;3.10;;;;;;5071421;28;19924;-64
2022/03/14 11:12:07;;;;;;;;;;;10.50;1.00;;;;;;5071735;28;20025;-62
2022/03/14 11:14:35;;;;;;;;;;;10.40;18.30;;;;;;5070991;28;20382;-63
2022/03/14 11:17:15;;;;;;;;;;;10.40;13.90;;;;;;5071215;28;19920;-63
2022/03/14 11:19:43;;;;;;;;;;;10.60;15.00;;;;;;5071542;28;20019;-62
2022/03/14 11:22:11;;;;;;;;;;;10.70;1.00;;;;;;5071326;28;19927;-62
2022/03/14 11:24:41;;;;;;;9.70;4.83;;;10.80;1.00;;;;;;5071013;28;20780;-60
2022/03/14 11:27:10;;;;;;;8.73;4.50;;;10.90;1.00;;;;;;5069993;28;20236;-60
2022/03/14 11:29:41;;;;;;;9.63;5.23;;;10.90;1.00;;;;;;5069747;28;20893;-62
2022/03/14 11:32:10;;;;;;;;;;;11.10;1.00;;;;;;5071377;28;20044;-61
2022/03/14 11:34:37;;;;;;;;;;;11.40;99.90;;;;;;5072067;28;20030;-63
2022/03/14 11:37:03;;;;;;;;;;;11.60;99.90;;;;;;5075215;28;19924;-63
2022/03/14 11:39:31;;;;;;;;;;;11.60;1.00;;;;;;5075102;28;20368;-62
2022/03/14 11:41:59;;;;;;;9.73;4.87;;;11.50;99.90;;;;;;5075231;28;20224;-58
2022/03/14 11:44:26;;;;;;;;;;;11.20;99.90;;;;;;5074799;28;20051;-63
2022/03/14 11:46:54;;;;;;;;;;;11.30;99.90;;;;;;5075105;28;19921;-63
2022/03/14 11:49:24;;;;;;;;;;;11.40;99.90;;;;;;5075148;28;19978;-62
2022/03/14 11:51:50;;;;;;;;;;;11.50;99.90;;;;;;5074951;28;19924;-63
2022/03/14 11:54:17;;;;;;;;;;;11.50;21.50;;;;;;5074925;28;19966;-63
2022/03/14 11:56:53;;;;;;;;;;;11.50;1.00;;;;;;5074593;28;19924;-63
2022/03/14 11:59:27;;;;;;;11.02;5.22;;;11.50;1.00;;;;;;5073720;28;20779;-62
2022/03/14 12:01:58;;;;;;;9.37;4.47;;;11.40;1.00;;;;;;5074719;28;20194;-61
2022/03/14 12:04:29;;;;;;;8.90;4.90;;;11.50;1.00;;;;;;5073065;28;20491;-61
2022/03/14 12:07:06;;;;;;;;;;;11.60;99.90;;;;;;5074749;28;20079;-62
2022/03/14 12:09:51;;;;;;;;;;;11.80;99.90;;;;;;5074633;28;19921;-61
2022/03/14 12:12:34;;;;;;;9.23;4.78;;;11.80;99.90;;;;;;5072996;28;20432;-62
2022/03/14 12:15:01;;;;;;;8.95;4.65;;;11.90;99.90;;;;;;5072819;28;20430;-60
2022/03/14 12:17:32;;;;;;;8.43;4.03;;;12.00;78.10;;;;;;5074486;28;20208;-62
2022/03/14 12:20:01;;;;;;;5.83;3.77;;;11.90;1.00;;;;;;5073925;28;20683;-61
2022/03/14 12:22:46;;;;;;;7.33;3.27;;;11.70;1.00;;;;;;5074361;28;20208;-63
2022/03/14 12:25:39;;;;;;;7.37;3.43;;;11.60;1.00;;;;;;5074152;28;20620;-62
2022/03/14 12:28:29;;;;;;;8.40;3.63;;;11.40;1.00;;;;;;5073341;28;20674;-64
2022/03/14 12:31:11;;;;;;;8.23;3.53;;;11.30;29.60;;;;;;5073907;28;20200;-63
2022/03/14 12:33:41;;;;;;;6.70;3.57;;;11.30;1.00;;;;;;5073710;28;20231;-62
2022/03/14 12:36:32;;;;;;;9.07;3.97;;;11.30;1.00;;;;;;5073527;28;20269;-63
2022/03/14 12:39:21;;;;;;;;;;;11.30;8.50;;;;;;5073917;28;20502;-62
2022/03/14 12:41:48;;;;;;;7.82;4.82;;;11.40;99.90;;;;;;5072903;28;20507;-62
2022/03/14 12:44:17;;;;;;;9.37;5.37;;;11.60;99.90;;;;;;5072439;28;20422;-62
2022/03/14 12:46:45;;;;;;;9.40;4.90;;;11.90;1.00;;;;;;5071283;28;20419;-62
2022/03/14 12:49:23;;;;;;;9.70;5.10;;;12.00;1.00;;;;;;5072065;28;20812;-62
2022/03/14 12:52:10;;;;;;;9.20;5.10;;;12.20;1.00;;;;;;5072247;28;20947;-61
2022/03/14 12:54:36;;;;;;;11.10;5.13;;;12.30;1.00;;;;;;5072614;28;20530;-61
2022/03/14 12:57:04;;;;;;;9.52;5.10;;;12.30;1.00;;;;;;5071576;28;20773;-59
2022/03/14 12:59:32;;;;;;;9.60;5.20;;;12.40;1.00;;;;;;5072361;28;20469;-63
2022/03/14 13:01:59;;;;;;;8.77;4.45;;;12.30;1.00;;;;;;5071859;28;21178;-62
2022/03/14 13:04:27;;;;;;;8.02;4.20;;;12.20;1.00;;;;;;5072100;28;20771;-61
2022/03/14 13:07:00;;;;;;;8.15;4.13;;;12.20;99.90;;;;;;5071142;28;20411;-62
2022/03/14 13:09:31;;;;;;;6.13;2.80;;;12.00;99.90;;;;;;5073335;28;20284;-61